createdAt,value
2023-04-08T00:01:23.793Z,10.15
2023-04-08T00:04:14.708Z,10.45
2023-04-08T00:07:02.620Z,9.70
2023-04-08T00:09:51.367Z,9.98
2023-04-08T00:12:41.963Z,10.02
2023-04-08T00:15:32.471Z,9.88
2023-04-08T00:18:20.242Z,10.52
2023-04-08T00:21:09.239Z,10.13
2023-04-08T00:23:57.456Z,11.65
2023-04-08T00:26:45.115Z,10.57
2023-04-08T00:29:32.678Z,10.07
2023-04-08T00:32:20.012Z,9.52
2023-04-08T00:35:07.845Z,8.63
2023-04-08T00:37:56.836Z,9.30
2023-04-08T00:40:44.641Z,10.13
2023-04-08T00:43:31.893Z,9.60
2023-04-08T00:46:19.418Z,9.95
2023-04-08T00:49:07.648Z,10.48
2023-04-08T00:51:56.969Z,10.57
2023-04-08T00:54:45.902Z,9.52
2023-04-08T00:57:33.733Z,9.95
2023-04-08T01:00:21.344Z,9.65
2023-04-08T01:03:16.306Z,9.65
2023-04-08T01:06:12.363Z,9.52
2023-04-08T01:09:02.321Z,10.13
2023-04-08T01:11:53.956Z,9.80
2023-04-08T01:14:46.346Z,10.90
2023-04-08T01:17:34.812Z,10.00
2023-04-08T01:20:22.785Z,10.38
2023-04-08T01:23:21.244Z,9.60
2023-04-08T01:26:13.207Z,8.40
2023-04-08T01:29:03.379Z,9.43
2023-04-08T01:31:51.763Z,9.85
2023-04-08T01:34:41.511Z,9.60
2023-04-08T01:37:30.885Z,10.05
2023-04-08T01:40:20.226Z,11.25
2023-04-08T01:43:11.473Z,11.10
2023-04-08T01:46:00.094Z,10.88
2023-04-08T01:48:49.035Z,10.90
2023-04-08T01:51:38.757Z,12.10
2023-04-08T01:54:26.685Z,10.57
2023-04-08T01:57:19.008Z,11.70
2023-04-08T02:00:11.570Z,11.55
2023-04-08T02:03:19.456Z,10.82
2023-04-08T02:06:07.768Z,10.65
2023-04-08T02:08:55.884Z,10.23
2023-04-08T02:11:43.780Z,10.48
2023-04-08T02:14:33.939Z,11.00
2023-04-08T02:17:30.918Z,11.52
2023-04-08T02:20:20.762Z,11.43
2023-04-08T02:23:14.855Z,11.32
2023-04-08T02:26:04.250Z,11.48
2023-04-08T02:28:53.873Z,12.13
2023-04-08T02:31:44.502Z,11.80
2023-04-08T02:34:37.377Z,11.90
2023-04-08T02:37:25.126Z,11.30
2023-04-08T02:40:27.972Z,11.05
2023-04-08T02:46:04.977Z,11.20
2023-04-08T02:48:53.262Z,12.15
2023-04-08T02:51:42.823Z,12.55
2023-04-08T02:54:30.319Z,14.63
2023-04-08T02:57:18.315Z,14.02
2023-04-08T03:00:06.672Z,15.20
2023-04-08T03:02:54.691Z,13.25
2023-04-08T03:05:42.888Z,14.73
2023-04-08T03:08:31.585Z,13.98
2023-04-08T03:11:18.838Z,14.13
2023-04-08T03:14:06.805Z,12.93
2023-04-08T03:16:54.632Z,12.77
2023-04-08T03:19:42.233Z,14.95
2023-04-08T03:22:29.595Z,13.40
2023-04-08T03:25:18.440Z,13.75
2023-04-08T03:28:06.071Z,15.15
2023-04-08T03:30:54.237Z,13.98
2023-04-08T03:33:42.109Z,16.10
2023-04-08T03:36:29.546Z,14.73
2023-04-08T03:39:16.975Z,15.90
2023-04-08T03:42:05.625Z,14.43
2023-04-08T03:44:52.905Z,14.98
2023-04-08T03:47:40.244Z,15.73
2023-04-08T03:50:27.876Z,15.35
2023-04-08T03:53:15.739Z,16.35
2023-04-08T03:56:06.164Z,15.90
2023-04-08T03:58:55.553Z,14.55
2023-04-08T04:01:43.464Z,15.32
2023-04-08T04:04:31.540Z,16.00
2023-04-08T04:07:19.196Z,16.38
2023-04-08T04:10:07.590Z,15.02
2023-04-08T04:12:55.098Z,15.23
2023-04-08T04:15:44.711Z,16.08
2023-04-08T04:18:32.149Z,15.75
2023-04-08T04:21:19.945Z,15.43
2023-04-08T04:24:07.961Z,15.70
2023-04-08T04:26:56.820Z,17.15
2023-04-08T04:29:44.369Z,16.85
2023-04-08T04:32:33.227Z,16.50
2023-04-08T04:35:20.526Z,15.75
2023-04-08T04:38:12.637Z,16.73
2023-04-08T04:40:59.966Z,16.60
2023-04-08T04:43:47.814Z,16.30
2023-04-08T04:46:35.146Z,17.63
2023-04-08T04:49:24.125Z,17.05
2023-04-08T04:52:12.095Z,17.70
2023-04-08T04:54:59.719Z,17.48
2023-04-08T04:57:47.638Z,18.83
2023-04-08T05:00:35.263Z,18.30
2023-04-08T05:03:22.819Z,18.58
2023-04-08T05:06:11.888Z,18.15
2023-04-08T05:09:02.150Z,17.45
2023-04-08T05:11:51.906Z,16.98
2023-04-08T05:14:39.670Z,18.40
2023-04-08T05:17:27.537Z,17.73
2023-04-08T05:20:17.471Z,16.23
2023-04-08T05:23:07.688Z,18.27
2023-04-08T05:25:54.861Z,18.30
2023-04-08T05:28:42.445Z,17.73
2023-04-08T05:31:30.092Z,16.75
2023-04-08T05:34:25.900Z,18.02
2023-04-08T05:37:13.442Z,18.33
2023-04-08T05:40:02.565Z,18.73
2023-04-08T05:42:49.655Z,18.13
2023-04-08T05:45:37.309Z,18.38
2023-04-08T05:48:27.532Z,18.58
2023-04-08T05:51:18.200Z,18.20
2023-04-08T05:54:05.932Z,17.25
2023-04-08T05:56:55.090Z,16.80
2023-04-08T05:59:42.638Z,17.70
2023-04-08T06:02:30.143Z,17.27
2023-04-08T06:05:19.405Z,17.77
2023-04-08T06:08:07.207Z,17.55
2023-04-08T06:10:56.783Z,17.05
2023-04-08T06:13:45.796Z,16.33
2023-04-08T06:16:33.752Z,16.58
2023-04-08T06:19:21.325Z,16.80
2023-04-08T06:22:08.845Z,15.45
2023-04-08T06:24:56.654Z,16.38
2023-04-08T06:27:44.265Z,16.02
2023-04-08T06:30:33.004Z,14.10
2023-04-08T06:33:20.545Z,15.57
2023-04-08T06:36:09.592Z,15.77
2023-04-08T06:38:57.392Z,15.50
2023-04-08T06:41:44.738Z,16.02
2023-04-08T06:44:48.421Z,16.88
2023-04-08T06:47:40.495Z,16.33
2023-04-08T06:50:28.115Z,16.45
2023-04-08T06:53:15.850Z,16.17
2023-04-08T06:56:03.666Z,16.08
2023-04-08T06:58:51.256Z,16.73
2023-04-08T07:01:39.383Z,16.88
2023-04-08T07:04:28.337Z,17.33
2023-04-08T07:07:16.079Z,17.05
2023-04-08T07:10:03.366Z,16.92
2023-04-08T07:12:51.274Z,16.25
2023-04-08T07:15:38.863Z,15.98
2023-04-08T07:18:28.610Z,16.30
2023-04-08T07:21:18.520Z,16.33
2023-04-08T07:24:06.151Z,16.45
2023-04-08T07:26:55.857Z,16.65
2023-04-08T07:29:43.739Z,15.68
2023-04-08T07:32:31.273Z,16.63
2023-04-08T07:35:24.692Z,17.95
2023-04-08T07:38:13.771Z,17.50
2023-04-08T07:41:01.420Z,15.98
2023-04-08T07:43:49.917Z,16.65
2023-04-08T07:46:39.757Z,15.65
2023-04-08T07:49:27.288Z,14.95
2023-04-08T07:52:14.407Z,15.35
2023-04-08T07:55:03.456Z,13.63
2023-04-08T07:57:51.719Z,12.15
2023-04-08T08:00:41.092Z,11.73
2023-04-08T08:03:29.114Z,12.07
2023-04-08T08:06:17.884Z,13.20
2023-04-08T08:09:05.694Z,11.40
2023-04-08T08:11:55.045Z,10.77
2023-04-08T08:14:42.626Z,11.10
2023-04-08T08:17:31.385Z,11.77
2023-04-08T08:20:19.127Z,11.35
2023-04-08T08:23:06.746Z,11.45
2023-04-08T08:26:02.256Z,12.18
2023-04-08T08:28:50.882Z,12.45
2023-04-08T08:31:38.553Z,13.32
2023-04-08T08:34:26.318Z,13.25
2023-04-08T08:37:14.345Z,12.80
2023-04-08T08:40:02.065Z,12.40
2023-04-08T08:42:53.645Z,12.95
2023-04-08T08:45:43.831Z,13.13
2023-04-08T08:48:34.355Z,13.77
2023-04-08T08:51:22.797Z,13.60
2023-04-08T08:54:10.495Z,12.15
2023-04-08T08:56:58.000Z,12.10
2023-04-08T08:59:48.330Z,12.75
2023-04-08T09:02:37.143Z,14.30
2023-04-08T09:05:25.136Z,14.70
2023-04-08T09:08:26.444Z,13.57
2023-04-08T09:11:16.494Z,13.68
2023-04-08T09:14:03.893Z,13.57
2023-04-08T09:16:51.765Z,14.25
2023-04-08T09:19:41.082Z,13.35
2023-04-08T09:22:28.245Z,11.95
2023-04-08T09:25:26.518Z,12.88
2023-04-08T09:28:21.769Z,12.88
2023-04-08T09:31:25.015Z,12.93
2023-04-08T09:34:14.788Z,11.88
2023-04-08T09:37:03.683Z,13.05
2023-04-08T09:39:51.093Z,12.82
2023-04-08T09:42:42.758Z,12.50
2023-04-08T09:45:31.154Z,12.52
2023-04-08T09:48:24.698Z,12.57
2023-04-08T09:51:18.571Z,13.52
2023-04-08T09:57:07.080Z,12.57
2023-04-08T10:00:02.160Z,13.43
2023-04-08T10:03:09.329Z,13.00
2023-04-08T10:05:57.983Z,13.63
2023-04-08T10:08:46.378Z,12.63
2023-04-08T10:11:36.445Z,13.65
2023-04-08T10:14:23.870Z,14.25
2023-04-08T10:17:27.790Z,14.50
2023-04-08T10:20:43.040Z,14.27
2023-04-08T10:24:01.612Z,13.35
2023-04-08T10:26:50.110Z,13.68
2023-04-08T10:29:37.136Z,13.65
2023-04-08T10:32:31.934Z,13.13
2023-04-08T10:35:18.741Z,14.98
2023-04-08T10:38:05.839Z,14.18
2023-04-08T10:40:53.899Z,14.10
2023-04-08T10:43:42.202Z,14.90
2023-04-08T10:46:29.927Z,15.60
2023-04-08T10:49:18.028Z,14.32
2023-04-08T10:52:09.870Z,14.57
2023-04-08T10:54:57.415Z,13.75
2023-04-08T10:57:44.642Z,13.90
2023-04-08T11:00:37.309Z,14.65
2023-04-08T11:03:25.105Z,14.73
2023-04-08T11:06:13.433Z,15.15
2023-04-08T11:09:05.703Z,14.73
2023-04-08T11:11:55.189Z,15.25
2023-04-08T11:14:43.801Z,15.32
2023-04-08T11:17:32.942Z,15.68
2023-04-08T11:20:20.863Z,14.77
2023-04-08T11:23:15.657Z,15.57
2023-04-08T11:26:05.185Z,15.25
2023-04-08T11:28:54.957Z,16.83
2023-04-08T11:31:43.778Z,16.58
2023-04-08T11:34:33.181Z,15.93
2023-04-08T11:37:20.835Z,17.02
2023-04-08T11:40:10.781Z,15.18
2023-04-08T11:42:58.541Z,14.45
2023-04-08T11:45:46.178Z,15.30
2023-04-08T11:48:34.058Z,15.00
2023-04-08T11:51:22.976Z,14.00
2023-04-08T11:54:28.504Z,15.45
2023-04-08T11:57:17.855Z,14.77
2023-04-08T12:00:07.444Z,15.65
2023-04-08T12:02:58.260Z,15.52
2023-04-08T12:05:46.581Z,15.45
2023-04-08T12:08:35.690Z,16.77
2023-04-08T12:11:23.742Z,16.17
2023-04-08T12:14:12.107Z,15.27
2023-04-08T12:17:00.319Z,14.95
2023-04-08T12:19:47.804Z,16.23
2023-04-08T12:22:35.400Z,15.45
2023-04-08T12:25:24.915Z,15.20
2023-04-08T12:28:12.806Z,14.45
2023-04-08T12:31:09.921Z,15.48
2023-04-08T12:33:57.501Z,13.75
2023-04-08T12:36:45.068Z,13.75
2023-04-08T12:39:32.730Z,13.40
2023-04-08T12:42:21.480Z,13.23
2023-04-08T12:45:09.672Z,14.38
2023-04-08T12:47:57.442Z,13.30
2023-04-08T12:50:45.216Z,11.98
2023-04-08T12:53:32.891Z,12.18
2023-04-08T12:56:21.401Z,11.77
2023-04-08T12:59:10.741Z,13.80
2023-04-08T13:01:58.411Z,11.52
2023-04-08T13:04:45.986Z,11.18
2023-04-08T13:07:33.246Z,12.02
2023-04-08T13:10:20.932Z,11.32
2023-04-08T13:13:08.466Z,11.43
2023-04-08T13:15:57.994Z,12.07
2023-04-08T13:18:45.864Z,12.00
2023-04-08T13:21:33.732Z,12.10
2023-04-08T13:24:21.244Z,11.30
2023-04-08T13:27:08.705Z,12.35
2023-04-08T13:29:56.302Z,12.77
2023-04-08T13:32:44.922Z,11.45
2023-04-08T13:35:44.692Z,11.13
2023-04-08T13:38:32.698Z,11.02
2023-04-08T13:41:21.522Z,11.73
2023-04-08T13:44:09.433Z,10.60
2023-04-08T13:46:57.078Z,11.38
2023-04-08T13:49:45.912Z,11.02
2023-04-08T13:52:33.634Z,12.38
2023-04-08T13:55:21.457Z,10.88
2023-04-08T13:58:21.026Z,11.45
2023-04-08T14:01:13.772Z,12.40
2023-04-08T14:04:01.173Z,10.70
2023-04-08T14:06:53.402Z,11.13
2023-04-08T14:09:40.744Z,11.63
2023-04-08T14:12:27.968Z,12.15
2023-04-08T14:15:15.921Z,10.93
2023-04-08T14:18:03.578Z,11.48
2023-04-08T14:20:50.924Z,10.45
2023-04-08T14:23:39.949Z,10.63
2023-04-08T14:26:28.140Z,11.05
2023-04-08T14:29:15.921Z,11.20
2023-04-08T14:32:03.633Z,10.15
2023-04-08T14:34:51.033Z,11.15
2023-04-08T14:37:39.107Z,11.77
2023-04-08T14:40:28.774Z,11.48
2023-04-08T14:43:16.129Z,11.88
2023-04-08T14:46:04.033Z,11.45
2023-04-08T14:48:51.525Z,11.43
2023-04-08T14:51:39.212Z,12.63
2023-04-08T14:54:26.650Z,11.10
2023-04-08T14:57:16.829Z,11.30
2023-04-08T15:00:04.893Z,10.75
2023-04-08T15:02:52.962Z,12.02
2023-04-08T15:05:40.484Z,12.45
2023-04-08T15:08:27.689Z,11.27
2023-04-08T15:11:15.129Z,12.10
2023-04-08T15:14:04.204Z,31.25
2023-04-08T15:16:51.957Z,12.15
2023-04-08T15:19:39.574Z,11.38
2023-04-08T15:22:27.224Z,10.93
2023-04-08T15:25:15.246Z,12.18
2023-04-08T15:28:03.820Z,10.80
2023-04-08T15:30:53.183Z,11.65
2023-04-08T15:33:42.205Z,12.02
2023-04-08T15:36:30.925Z,11.52
2023-04-08T15:39:18.329Z,12.40
2023-04-08T15:42:06.145Z,13.10
2023-04-08T15:44:53.845Z,12.15
2023-04-08T15:47:43.122Z,13.10
2023-04-08T15:50:31.638Z,15.45
2023-04-08T15:53:19.041Z,14.40
2023-04-08T15:56:06.874Z,14.77
2023-04-08T15:58:54.591Z,15.73
2023-04-08T16:01:42.487Z,15.18
2023-04-08T16:04:31.760Z,14.30
2023-04-08T16:07:19.191Z,14.73
2023-04-08T16:10:07.666Z,16.05
2023-04-08T16:12:55.496Z,15.10
2023-04-08T16:15:42.924Z,15.80
2023-04-08T16:18:30.832Z,15.13
2023-04-08T16:21:19.948Z,15.18
2023-04-08T16:24:07.669Z,16.52
2023-04-08T16:26:55.346Z,15.73
2023-04-08T16:29:43.782Z,16.38
2023-04-08T16:32:32.132Z,16.58
2023-04-08T16:35:20.800Z,16.67
2023-04-08T16:38:09.723Z,15.95
2023-04-08T16:40:59.834Z,16.98
2023-04-08T16:43:47.305Z,16.90
2023-04-08T16:46:34.667Z,17.23
2023-04-08T16:49:23.004Z,17.30
2023-04-08T16:52:10.496Z,16.98
2023-04-08T16:54:59.678Z,17.60
2023-04-08T16:57:48.183Z,16.67
2023-04-08T17:00:36.566Z,16.95
2023-04-08T17:03:24.263Z,16.90
2023-04-08T17:06:13.806Z,16.80
2023-04-08T17:09:01.848Z,16.27
2023-04-08T17:11:50.947Z,17.45
2023-04-08T17:14:38.840Z,16.75
2023-04-08T17:17:26.339Z,16.38
2023-04-08T17:20:14.467Z,14.80
2023-04-08T17:23:03.158Z,15.93
2023-04-08T17:25:50.734Z,16.35
2023-04-08T17:28:39.592Z,15.90
2023-04-08T17:31:29.673Z,15.95
2023-04-08T17:34:17.555Z,13.82
2023-04-08T17:37:06.232Z,14.40
2023-04-08T17:39:53.596Z,13.85
2023-04-08T17:42:41.772Z,13.35
2023-04-08T17:45:30.416Z,13.63
2023-04-08T17:48:17.769Z,13.05
2023-04-08T17:51:07.535Z,14.32
2023-04-08T17:53:55.160Z,13.65
2023-04-08T17:56:44.662Z,14.20
2023-04-08T17:59:33.122Z,14.00
2023-04-08T18:02:22.540Z,13.82
2023-04-08T18:05:11.923Z,14.40
2023-04-08T18:07:59.592Z,14.52
2023-04-08T18:10:47.016Z,14.15
2023-04-08T18:13:34.512Z,15.32
2023-04-08T18:16:23.181Z,15.20
2023-04-08T18:19:14.798Z,16.02
2023-04-08T18:22:02.800Z,16.88
2023-04-08T18:24:50.387Z,17.15
2023-04-08T18:27:40.880Z,17.25
2023-04-08T18:30:28.165Z,18.95
2023-04-08T18:33:15.584Z,19.98
2023-04-08T18:36:10.330Z,21.23
2023-04-08T18:38:57.579Z,19.80
2023-04-08T18:41:45.022Z,18.50
2023-04-08T18:44:33.216Z,17.08
2023-04-08T18:47:20.639Z,16.23
2023-04-08T18:50:08.454Z,17.30
2023-04-08T18:52:57.821Z,16.92
2023-04-08T18:55:46.382Z,16.42
2023-04-08T18:58:34.175Z,16.80
2023-04-08T19:01:22.379Z,15.43
2023-04-08T19:04:11.215Z,16.23
2023-04-08T19:06:58.649Z,15.48
2023-04-08T19:09:47.762Z,17.00
2023-04-08T19:12:35.088Z,16.05
2023-04-08T19:15:22.810Z,16.73
2023-04-08T19:18:10.484Z,17.73
2023-04-08T19:20:58.047Z,18.35
2023-04-08T19:23:47.252Z,17.95
2023-04-08T19:26:38.734Z,17.60
2023-04-08T19:29:29.039Z,18.17
2023-04-08T19:32:16.827Z,18.13
2023-04-08T19:35:04.322Z,17.90
2023-04-08T19:37:51.859Z,18.48
2023-04-08T19:40:40.693Z,18.02
2023-04-08T19:43:30.431Z,18.20
2023-04-08T19:46:18.116Z,16.95
2023-04-08T19:49:06.132Z,18.15
2023-04-08T19:51:53.874Z,19.55
2023-04-08T19:54:43.671Z,18.50
2023-04-08T19:57:31.132Z,18.38
2023-04-08T20:00:20.928Z,18.65
2023-04-08T20:03:09.340Z,17.55
2023-04-08T20:05:57.318Z,17.45
2023-04-08T20:08:44.610Z,18.17
2023-04-08T20:11:32.454Z,17.75
2023-04-08T20:14:20.057Z,20.02
2023-04-08T20:17:09.685Z,19.17
2023-04-08T20:19:57.392Z,19.58
2023-04-08T20:22:46.666Z,19.80
2023-04-08T20:25:34.401Z,17.48
2023-04-08T20:28:22.211Z,19.15
2023-04-08T20:31:10.654Z,17.63
2023-04-08T20:34:00.530Z,18.08
2023-04-08T20:36:48.492Z,19.05
2023-04-08T20:39:35.890Z,18.48
2023-04-08T20:42:23.722Z,17.95
2023-04-08T20:45:12.014Z,17.08
2023-04-08T20:48:01.161Z,18.08
2023-04-08T20:50:51.893Z,16.33
2023-04-08T20:53:39.518Z,17.67
2023-04-08T20:56:28.174Z,16.90
2023-04-08T20:59:15.771Z,17.48
2023-04-08T21:02:03.729Z,17.00
2023-04-08T21:04:51.461Z,19.30
2023-04-08T21:07:44.604Z,19.13
2023-04-08T21:10:32.241Z,19.27
2023-04-08T21:13:19.583Z,18.05
2023-04-08T21:16:07.687Z,18.15
2023-04-08T21:18:55.456Z,18.60
2023-04-08T21:21:43.390Z,19.35
2023-04-08T21:24:32.197Z,18.15
2023-04-08T21:27:19.777Z,19.75
2023-04-08T21:30:08.670Z,19.42
2023-04-08T21:32:56.507Z,19.67
2023-04-08T21:35:43.878Z,18.73
2023-04-08T21:38:32.557Z,18.13
2023-04-08T21:41:21.739Z,17.00
2023-04-08T21:44:10.859Z,16.05
2023-04-08T21:47:01.149Z,14.55
2023-04-08T21:49:50.295Z,17.00
2023-04-08T21:52:38.294Z,12.85
2023-04-08T21:55:26.206Z,12.52
2023-04-08T21:58:15.014Z,11.57
2023-04-08T22:01:03.801Z,10.10
2023-04-08T22:03:54.178Z,10.90
2023-04-08T22:06:41.606Z,10.30
2023-04-08T22:09:29.262Z,9.70
2023-04-08T22:12:16.805Z,9.52
2023-04-08T22:15:06.610Z,6.78
2023-04-08T22:17:54.286Z,6.25
2023-04-08T22:20:42.253Z,6.25
2023-04-08T22:23:29.880Z,6.90
2023-04-08T22:26:17.471Z,6.47
2023-04-08T22:29:08.390Z,7.32
2023-04-08T22:31:57.131Z,6.88
2023-04-08T22:34:44.788Z,8.00
2023-04-08T22:37:33.401Z,7.55
2023-04-08T22:40:21.289Z,7.78
2023-04-08T22:43:09.053Z,8.45
2023-04-08T22:45:56.679Z,7.45
2023-04-08T22:48:47.008Z,7.28
2023-04-08T22:51:34.714Z,7.45
2023-04-08T22:54:22.132Z,8.30
2023-04-08T22:57:09.735Z,7.40
2023-04-08T22:59:57.095Z,8.20
2023-04-08T23:02:44.977Z,8.10
2023-04-08T23:05:34.244Z,7.90
2023-04-08T23:08:21.875Z,8.05
2023-04-08T23:11:09.753Z,7.82
2023-04-08T23:13:57.230Z,8.43
2023-04-08T23:16:44.429Z,8.20
2023-04-08T23:19:31.564Z,8.85
2023-04-08T23:22:20.776Z,8.52
2023-04-08T23:25:09.234Z,9.38
2023-04-08T23:27:57.147Z,9.50
2023-04-08T23:30:44.516Z,8.93
2023-04-08T23:33:32.098Z,8.55
2023-04-08T23:36:19.600Z,9.18
2023-04-08T23:39:08.564Z,8.68
2023-04-08T23:41:57.109Z,9.00
2023-04-08T23:44:44.923Z,8.93
2023-04-08T23:47:32.203Z,8.60
2023-04-08T23:50:20.557Z,8.73
2023-04-08T23:53:08.103Z,8.80
2023-04-08T23:56:04.730Z,9.80
2023-04-08T23:58:54.114Z,9.25
